Time;durP1;ratioP1;P1;durP2;ratioP2;P2;SDS_P1;SDS_P2;PMS_P1;PMS_P2;Temp;Humidity;BMP_temperature;BMP_pressure;BME280_temperature;BME280_humidity;BME280_pressure;Samples;Min_cycle;Max_cycle;Signal;HPM_P1;HPM_P2
2024/04/05 00:02:33;;;;;;;2.00;0.80;;;;;;;10.88;100.00;99873.11;182392;1234;46075;-88
2024/04/05 00:06:35;;;;;;;1.40;0.70;;;;;;;10.84;100.00;99874.00;182463;1237;46169;-88
2024/04/05 00:10:38;;;;;;;1.70;0.60;;;;;;;10.82;100.00;99872.58;182526;1237;46085;-87
2024/04/05 00:14:40;;;;;;;1.50;1.10;;;;;;;10.82;100.00;99875.54;182811;1234;44657;-87
2024/04/05 00:18:42;;;;;;;0.50;0.40;;;;;;;10.84;100.00;99879.32;182365;1238;59503;-88
2024/04/05 00:22:44;;;;;;;2.30;0.60;;;;;;;10.80;100.00;99879.30;182802;1234;45961;-87
2024/04/05 00:26:46;;;;;;;0.70;0.40;;;;;;;10.78;100.00;99886.98;182554;1237;46079;-86
2024/04/05 00:30:48;;;;;;;3.70;0.90;;;;;;;10.74;100.00;99894.23;182465;1236;46180;-87
2024/04/05 00:34:49;;;;;;;1.40;0.80;;;;;;;10.70;100.00;99898.59;182695;1234;46079;-88
2024/04/05 00:38:54;;;;;;;3.10;0.90;;;;;;;10.64;100.00;99903.02;182558;1235;57689;-87
2024/04/05 00:42:56;;;;;;;0.60;0.50;;;;;;;10.61;100.00;99912.88;182526;1234;46041;-87
2024/04/05 00:46:58;;;;;;;16.60;1.30;;;;;;;10.57;100.00;99923.86;182653;1238;45941;-88
2024/04/05 00:51:03;;;;;;;2.30;1.50;;;;;;;10.52;100.00;99928.02;182602;1237;45990;-88
2024/04/05 00:55:05;;;;;;;2.80;0.80;;;;;;;10.48;100.00;99934.05;184232;1234;46070;-86
2024/04/05 00:59:10;;;;;;;1.40;1.10;;;;;;;10.46;100.00;99940.42;185514;1237;58175;-87
2024/04/05 01:03:12;;;;;;;7.40;0.90;;;;;;;10.40;100.00;99942.66;182955;1234;46199;-88
2024/04/05 01:07:15;;;;;;;0.40;0.40;;;;;;;10.43;100.00;99949.20;182563;1234;46157;-87
2024/04/05 01:11:19;;;;;;;1.00;0.70;;;;;;;10.50;100.00;99955.38;182803;1234;45957;-90
2024/04/05 01:15:22;;;;;;;6.90;0.60;;;;;;;10.51;100.00;99955.59;182571;1237;45995;-85
2024/04/05 01:19:25;;;;;;;1.10;0.70;;;;;;;10.55;100.00;99956.15;182469;1238;58290;-86
2024/04/05 01:23:29;;;;;;;1.00;0.50;;;;;;;10.59;100.00;99957.23;182531;1234;46078;-86
2024/04/05 01:27:30;;;;;;;0.60;0.30;;;;;;;10.61;100.00;99956.55;182571;1235;46074;-86
2024/04/05 01:31:32;;;;;;;1.70;0.40;;;;;;;10.66;100.00;99956.82;182403;1238;46060;-86
2024/04/05 01:35:34;;;;;;;1.30;0.80;;;;;;;10.71;100.00;99954.95;182249;1238;46081;-85
2024/04/05 01:39:36;;;;;;;2.80;0.50;;;;;;;10.67;100.00;99953.85;182165;1237;58111;-86
2024/04/05 01:43:38;;;;;;;0.70;0.60;;;;;;;10.68;100.00;99960.91;182572;1234;46155;-86
2024/04/05 01:47:40;;;;;;;1.30;0.60;;;;;;;10.68;100.00;99957.66;182415;1234;46085;-86
2024/04/05 01:51:42;;;;;;;2.10;1.20;;;;;;;10.71;100.00;99961.89;182082;1234;46086;-86
2024/04/05 01:55:44;;;;;;;3.70;0.90;;;;;;;10.72;100.00;99959.64;182446;1234;45917;-87
2024/04/05 01:59:47;;;;;;;1.60;0.70;;;;;;;10.74;100.00;99953.81;182294;1235;57941;-87
2024/04/05 02:03:51;;;;;;;5.10;1.40;;;;;;;10.73;100.00;99956.04;182746;1237;45951;-87
2024/04/05 02:07:54;;;;;;;0.70;0.60;;;;;;;10.67;100.00;99953.66;182529;1234;46007;-86
2024/04/05 02:11:56;;;;;;;3.60;1.20;;;;;;;10.67;100.00;99952.48;182608;1235;46085;-85
2024/04/05 02:15:57;;;;;;;1.90;1.40;;;;;;;10.73;100.00;99954.09;182481;1234;46108;-86
2024/04/05 02:19:59;;;;;;;1.30;0.70;;;;;;;10.77;100.00;99958.55;182249;1234;59498;-87
2024/04/05 02:24:01;;;;;;;2.60;0.90;;;;;;;10.78;100.00;99959.98;182134;1234;46159;-85
2024/04/05 02:28:04;;;;;;;1.50;0.80;;;;;;;10.79;100.00;99964.58;182268;1237;46069;-85
2024/04/05 02:32:06;;;;;;;2.00;1.20;;;;;;;10.76;100.00;99968.88;182554;1235;45929;-85
2024/04/05 02:36:08;;;;;;;3.40;1.50;;;;;;;10.79;100.00;99971.47;182323;1234;45979;-87
2024/04/05 02:40:10;;;;;;;4.60;0.70;;;;;;;10.86;100.00;99964.98;182217;1234;58229;-87
2024/04/05 02:44:12;;;;;;;0.80;0.70;;;;;;;10.94;100.00;99967.48;182631;1235;46153;-87
2024/04/05 02:48:16;;;;;;;2.20;0.90;;;;;;;11.06;100.00;99969.95;182207;1235;46012;-84
2024/04/05 02:52:17;;;;;;;3.80;0.70;;;;;;;11.17;100.00;99974.85;182303;1238;45957;-87
2024/04/05 02:56:19;;;;;;;5.20;1.40;;;;;;;11.22;100.00;99977.61;182369;1235;46041;-85
2024/04/05 03:00:21;;;;;;;2.20;1.30;;;;;;;11.30;100.00;99985.47;182629;1235;58479;-86
2024/04/05 03:04:23;;;;;;;0.80;0.80;;;;;;;11.36;100.00;99983.67;182329;1234;46090;-86
2024/04/05 03:08:25;;;;;;;1.10;0.60;;;;;;;11.39;100.00;99986.55;182482;1235;45954;-86
2024/04/05 03:12:27;;;;;;;1.50;0.80;;;;;;;11.44;100.00;99992.58;182323;1234;45971;-86
2024/04/05 03:16:29;;;;;;;3.30;1.30;;;;;;;11.44;100.00;99990.24;182467;1235;45849;-82
2024/04/05 03:20:31;;;;;;;1.90;0.50;;;;;;;11.39;100.00;99988.05;182286;1237;58196;-82
2024/04/05 03:24:33;;;;;;;3.40;1.50;;;;;;;11.30;100.00;99992.36;182334;1236;46110;-83
2024/04/05 03:28:35;;;;;;;1.40;0.90;;;;;;;11.20;100.00;99994.98;182466;1235;46073;-82
2024/04/05 03:32:37;;;;;;;4.20;0.70;;;;;;;11.09;100.00;99996.02;185050;1234;43946;-80
2024/04/05 03:36:38;;;;;;;3.00;1.20;;;;;;;11.00;100.00;99998.02;182653;1235;46077;-81
2024/04/05 03:40:41;;;;;;;1.30;0.60;;;;;;;10.99;100.00;100000.75;182468;1235;59499;-81
2024/04/05 03:44:43;;;;;;;1.70;0.50;;;;;;;11.00;100.00;100011.31;182437;1235;45984;-81
2024/04/05 03:48:45;;;;;;;1.40;0.60;;;;;;;11.06;100.00;100007.21;182189;1234;45926;-83
2024/04/05 03:52:47;;;;;;;3.10;1.40;;;;;;;11.14;100.00;100010.73;182365;1237;44793;-83
2024/04/05 03:56:49;;;;;;;2.70;1.10;;;;;;;11.24;100.00;100013.15;182679;1237;46014;-83
2024/04/05 04:00:53;;;;;;;6.30;1.40;;;;;;;11.34;100.00;100022.21;182158;1238;58016;-84
2024/04/05 04:04:55;;;;;;;7.90;1.80;;;;;;;11.41;100.00;100025.68;182161;1235;44088;-84
2024/04/05 04:08:57;;;;;;;1.30;1.00;;;;;;;11.49;100.00;100031.73;182528;1235;46120;-83
2024/04/05 04:13:00;;;;;;;2.90;0.70;;;;;;;11.57;100.00;100042.13;182180;1235;46059;-84
2024/04/05 04:17:02;;;;;;;2.40;1.20;;;;;;;11.62;100.00;100044.55;182521;1237;46180;-84
2024/04/05 04:21:05;;;;;;;2.70;1.30;;;;;;;11.65;100.00;100047.48;182407;1234;58267;-84
2024/04/05 04:25:07;;;;;;;2.00;0.70;;;;;;;11.71;100.00;100049.98;182523;1237;45961;-83
2024/04/05 04:29:09;;;;;;;9.50;1.90;;;;;;;11.77;100.00;100047.28;182424;1237;46115;-83
2024/04/05 04:33:13;;;;;;;6.50;1.30;;;;;;;11.81;100.00;100045.52;182570;1235;46039;-84
2024/04/05 04:37:16;;;;;;;9.10;2.30;;;;;;;11.82;100.00;100053.77;182895;1235;45919;-83
2024/04/05 04:41:19;;;;;;;4.30;1.30;;;;;;;11.88;100.00;100056.45;182922;1235;59146;-80
2024/04/05 04:45:20;;;;;;;1.90;1.30;;;;;;;11.93;100.00;100054.08;182388;1234;46072;-83
2024/04/05 04:49:23;;;;;;;6.10;1.70;;;;;;;11.99;100.00;100061.43;182808;1235;46082;-82
2024/04/05 04:53:25;;;;;;;3.10;1.60;;;;;;;12.07;100.00;100067.85;182577;1237;46132;-83
2024/04/05 04:57:27;;;;;;;6.80;1.20;;;;;;;12.15;100.00;100071.58;182736;1234;46123;-83
2024/04/05 05:01:29;;;;;;;5.10;1.60;;;;;;;12.24;100.00;100080.92;182445;1234;59299;-83
2024/04/05 05:05:30;;;;;;;2.30;1.10;;;;;;;12.31;100.00;100086.89;184043;1234;46046;-82
2024/04/05 05:09:32;;;;;;;4.10;1.50;;;;;;;12.36;100.00;100092.10;182707;1235;46287;-83
2024/04/05 05:13:34;;;;;;;4.30;1.60;;;;;;;12.43;100.00;100095.91;182728;1233;45954;-82
2024/04/05 05:17:37;;;;;;;2.00;0.90;;;;;;;12.47;100.00;100103.89;182550;1234;45956;-83
2024/04/05 05:21:39;;;;;;;11.30;1.90;;;;;;;12.54;100.00;100102.58;182199;1235;58383;-82
2024/04/05 05:25:45;;;;;;;7.90;1.90;;;;;;;12.59;100.00;100106.54;182666;1234;46132;-83
2024/04/05 05:29:47;;;;;;;;;;;;;;;12.65;100.00;100110.38;182524;1234;46199;-83
2024/04/05 05:33:49;;;;;;;6.80;2.10;;;;;;;12.67;100.00;100114.85;182340;1234;45770;-83
2024/04/05 05:37:52;;;;;;;4.90;2.60;;;;;;;12.72;100.00;100117.73;182498;1235;46080;-83
2024/04/05 05:41:54;;;;;;;7.30;1.60;;;;;;;12.79;100.00;100117.54;182193;1234;59499;-83
2024/04/05 05:45:56;;;;;;;9.10;1.90;;;;;;;12.84;100.00;100123.39;182237;1235;46194;-83
2024/04/05 05:49:58;;;;;;;6.80;1.60;;;;;;;12.93;100.00;100132.41;182558;1235;46107;-83
2024/04/05 05:54:00;;;;;;;4.00;2.10;;;;;;;12.97;100.00;100130.36;182504;1235;46091;-83
2024/04/05 05:58:02;;;;;;;3.30;1.50;;;;;;;13.05;100.00;100132.18;182555;1235;44099;-83
2024/04/05 06:02:04;;;;;;;7.70;3.10;;;;;;;13.18;100.00;100130.39;182705;1235;58368;-83
2024/04/05 06:06:10;;;;;;;4.80;1.80;;;;;;;13.73;100.00;100135.30;182410;1235;46001;-83
2024/04/05 06:10:12;;;;;;;6.30;1.90;;;;;;;14.52;100.00;100136.80;182269;1235;46183;-83
2024/04/05 06:14:14;;;;;;;4.40;1.30;;;;;;;15.20;97.48;100141.44;182297;1238;209710;-83
2024/04/05 06:18:16;;;;;;;4.70;2.00;;;;;;;15.55;91.91;100140.69;182557;1235;46033;-83
2024/04/05 06:22:18;;;;;;;2.30;1.10;;;;;;;15.65;90.38;100142.50;182544;1234;58070;-83
2024/04/05 06:26:20;;;;;;;3.00;1.80;;;;;;;15.91;89.59;100143.73;182291;1235;45951;-83
2024/04/05 06:30:22;;;;;;;4.30;1.50;;;;;;;16.23;88.31;100150.50;182333;1235;46175;-83
2024/04/05 06:34:24;;;;;;;6.30;1.70;;;;;;;16.67;88.79;100157.58;182680;1234;46120;-82
2024/04/05 06:38:27;;;;;;;3.00;1.80;;;;;;;16.99;83.59;100159.98;182333;1234;46691;-83
2024/04/05 06:42:30;;;;;;;3.40;1.30;;;;;;;17.02;80.69;100163.73;182300;1237;59143;-82
2024/04/05 06:46:31;;;;;;;6.00;1.90;;;;;;;16.61;80.61;100167.36;182514;1237;46308;-82
2024/04/05 06:50:33;;;;;;;4.10;1.50;;;;;;;16.25;83.21;100166.40;182519;1235;46088;-82
2024/04/05 06:54:43;;;;;;;8.80;2.30;;;;;;;16.25;83.97;100166.23;182138;1235;46188;-82
2024/04/05 06:58:45;;;;;;;3.70;1.50;;;;;;;16.49;84.07;100168.77;182488;1237;45973;-82
2024/04/05 07:02:47;;;;;;;8.50;2.30;;;;;;;16.74;82.01;100172.25;182509;1237;57948;-81
2024/04/05 07:06:55;;;;;;;3.10;1.80;;;;;;;16.94;82.27;100179.86;182727;1234;44226;-83
2024/04/05 07:10:57;;;;;;;3.80;2.30;;;;;;;16.82;80.43;100181.55;182539;1233;45943;-82
2024/04/05 07:14:58;;;;;;;5.90;1.80;;;;;;;17.04;82.03;100185.94;182513;1237;46225;-82
2024/04/05 07:19:00;;;;;;;11.90;2.00;;;;;;;17.24;79.97;100187.52;182452;1235;46076;-83
2024/04/05 07:23:02;;;;;;;6.10;2.50;;;;;;;17.33;77.25;100198.52;182839;1233;57957;-83
2024/04/05 07:27:05;;;;;;;3.60;1.70;;;;;;;17.20;77.55;100199.91;182480;1235;46452;-83
2024/04/05 07:31:07;;;;;;;10.20;1.90;;;;;;;16.89;79.63;100202.80;182738;1235;45964;-83
2024/04/05 07:35:09;;;;;;;6.00;1.20;;;;;;;16.67;82.81;100208.34;182425;1235;45991;-83
2024/04/05 07:39:12;;;;;;;6.30;2.30;;;;;;;16.73;82.62;100212.40;182922;1237;46101;-83
2024/04/05 07:43:14;;;;;;;5.00;2.40;;;;;;;16.87;81.32;100215.79;182319;1237;57832;-83
2024/04/05 07:47:16;;;;;;;6.20;1.90;;;;;;;16.96;79.00;100216.22;182301;1235;46072;-83
2024/04/05 07:51:18;;;;;;;4.20;2.00;;;;;;;16.97;77.89;100216.29;182661;1235;46007;-83
2024/04/05 07:55:20;;;;;;;6.50;2.90;;;;;;;17.14;79.00;100219.33;182481;1235;46145;-83
2024/04/05 07:59:22;;;;;;;8.40;2.60;;;;;;;17.19;77.38;100224.05;182200;1237;46041;-84
2024/04/05 08:03:23;;;;;;;5.90;2.80;;;;;;;17.13;78.63;100223.69;182173;1235;57857;-83
2024/04/05 08:07:26;;;;;;;7.10;2.00;;;;;;;17.32;78.77;100231.81;182145;1234;46075;-84
2024/04/05 08:11:28;;;;;;;11.00;2.60;;;;;;;17.52;76.06;100225.81;182282;1234;46062;-84
2024/04/05 08:15:30;;;;;;;3.90;1.40;;;;;;;17.45;73.47;100230.49;182488;1234;46034;-83
2024/04/05 08:19:32;;;;;;;7.10;2.30;;;;;;;17.19;75.68;100224.48;182253;1233;45951;-83
2024/04/05 08:23:34;;;;;;;5.50;2.00;;;;;;;17.15;74.21;100220.77;182114;1233;58052;-83
2024/04/05 08:27:36;;;;;;;6.90;1.90;;;;;;;17.16;74.13;100216.49;182459;1233;46083;-84
2024/04/05 08:31:38;;;;;;;5.00;2.00;;;;;;;17.36;75.78;100214.47;182594;1237;46187;-84
2024/04/05 08:35:40;;;;;;;4.70;2.40;;;;;;;17.42;72.71;100219.75;182212;1234;44629;-83
2024/04/05 08:39:43;;;;;;;12.00;2.20;;;;;;;17.46;71.80;100216.79;182512;1233;46031;-83
2024/04/05 08:43:46;;;;;;;6.60;2.30;;;;;;;17.56;72.70;100218.61;182894;1234;57760;-83
2024/04/05 08:47:50;;;;;;;11.00;2.40;;;;;;;17.83;73.16;100211.11;182183;1234;46074;-84
2024/04/05 08:51:52;;;;;;;7.10;2.30;;;;;;;17.98;69.45;100213.24;182583;1234;46268;-83
2024/04/05 08:55:58;;;;;;;6.70;2.20;;;;;;;18.00;69.79;100208.97;182419;1235;46058;-83
2024/04/05 09:00:00;;;;;;;8.60;2.90;;;;;;;18.20;71.18;100208.70;182495;1237;46033;-84
2024/04/05 09:04:05;;;;;;;15.80;2.50;;;;;;;18.19;68.62;100209.15;182297;1235;59351;-83
2024/04/05 09:08:08;;;;;;;4.70;1.80;;;;;;;18.19;67.44;100208.05;182501;1235;45958;-83
2024/04/05 09:12:14;;;;;;;3.80;1.80;;;;;;;18.19;68.72;100207.17;184167;1237;46059;-82
2024/04/05 09:16:21;;;;;;;7.20;2.30;;;;;;;18.27;69.61;100210.31;184113;1234;46037;-83
2024/04/05 09:20:29;;;;;;;6.00;2.60;;;;;;;18.34;69.39;100209.63;182282;1234;46222;-83
2024/04/05 09:24:31;;;;;;;9.50;2.30;;;;;;;18.16;67.47;100203.34;182415;1235;58675;-83
2024/04/05 09:28:33;;;;;;;10.10;3.40;;;;;;;18.13;69.39;100200.64;182618;1237;45996;-82
2024/04/05 09:32:36;;;;;;;9.40;3.40;;;;;;;18.25;69.12;100199.97;182241;1235;46435;-82
2024/04/05 09:36:38;;;;;;;11.80;2.90;;;;;;;18.16;67.52;100193.11;182343;1234;46088;-83
2024/04/05 09:40:41;;;;;;;4.70;2.00;;;;;;;18.17;68.88;100188.78;182812;1234;46053;-83
2024/04/05 09:44:44;;;;;;;11.90;3.30;;;;;;;18.17;69.07;100186.73;182501;1234;58048;-83
2024/04/05 09:48:46;;;;;;;4.50;2.10;;;;;;;18.15;67.49;100190.37;182073;1238;46136;-83
2024/04/05 09:52:52;;;;;;;7.70;3.00;;;;;;;18.00;68.98;100189.94;182841;1237;45977;-83
2024/04/05 09:56:54;;;;;;;10.50;2.50;;;;;;;18.31;71.93;100184.95;182274;1234;46075;-83
2024/04/05 10:00:56;;;;;;;7.00;2.80;;;;;;;18.50;68.69;100187.67;182742;1236;46630;-83
2024/04/05 10:04:58;;;;;;;8.90;3.00;;;;;;;18.59;67.54;100182.27;182449;1234;59256;-83
2024/04/05 10:09:00;;;;;;;6.40;1.70;;;;;;;18.82;68.90;100188.24;182524;1237;46021;-83
2024/04/05 10:13:16;;;;;;;4.60;2.00;;;;;;;18.85;68.42;100191.95;182222;1236;46050;-82
2024/04/05 10:17:18;;;;;;;;;;;;;;;19.00;67.94;100195.84;182466;1237;46177;-82
2024/04/05 10:21:19;;;;;;;5.50;2.60;;;;;;;19.24;70.12;100196.05;182938;1234;45758;-83
2024/04/05 10:25:21;;;;;;;5.80;2.70;;;;;;;19.29;66.99;100196.33;182222;1233;58009;-83
2024/04/05 10:29:25;;;;;;;6.20;2.30;;;;;;;19.05;69.49;100198.84;182556;1233;46075;-83
2024/04/05 10:33:27;;;;;;;6.80;2.20;;;;;;;18.88;71.83;100195.54;182126;1237;46701;-82
2024/04/05 10:37:29;;;;;;;7.20;2.40;;;;;;;18.90;69.83;100188.48;182375;1237;46139;-82
2024/04/05 10:41:34;;;;;;;4.90;2.80;;;;;;;19.33;71.84;100189.77;182437;1233;45997;-83
2024/04/05 10:45:39;;;;;;;12.10;3.40;;;;;;;19.58;67.81;100189.29;182464;1234;59435;-83
2024/04/05 10:49:40;;;;;;;5.80;1.50;;;;;;;19.60;66.57;100188.52;182344;1234;46022;-82
2024/04/05 10:53:42;;;;;;;6.20;1.50;;;;;;;19.70;68.83;100185.86;182349;1237;46098;-82
2024/04/05 10:57:44;;;;;;;6.50;1.50;;;;;;;19.74;67.35;100181.15;182331;1234;46079;-81
2024/04/05 11:01:49;;;;;;;8.20;2.80;;;;;;;19.63;64.84;100191.73;182423;1233;46021;-83
2024/04/05 11:06:02;;;;;;;5.20;1.70;;;;;;;19.36;66.74;100195.38;182405;1233;58012;-83
2024/04/05 11:10:13;;;;;;;6.90;2.10;;;;;;;19.29;68.57;100200.52;183234;1234;46194;-83
2024/04/05 11:14:32;;;;;;;2.70;1.40;;;;;;;19.31;69.40;100195.87;182858;1233;46024;-83
2024/04/05 11:18:37;;;;;;;5.50;1.90;;;;;;;19.34;66.82;100192.48;182291;1237;46107;-83
2024/04/05 11:22:40;;;;;;;5.20;2.10;;;;;;;19.52;67.84;100189.55;182460;1233;46152;-83
2024/04/05 11:26:49;;;;;;;3.30;1.70;;;;;;;19.83;65.81;100188.65;182235;1234;59398;-83
2024/04/05 11:30:51;;;;;;;6.40;1.60;;;;;;;20.01;65.25;100191.61;182352;1233;45926;-83
2024/04/05 11:34:53;;;;;;;6.70;2.30;;;;;;;20.09;65.91;100189.05;182392;1238;45967;-83
2024/04/05 11:38:55;;;;;;;5.00;1.40;;;;;;;20.24;65.39;100190.75;182366;1237;46085;-83
2024/04/05 11:42:57;;;;;;;7.00;1.70;;;;;;;20.29;63.64;100189.38;182177;1234;46006;-83
2024/04/05 11:46:59;;;;;;;5.20;2.20;;;;;;;20.41;63.36;100178.91;183089;1234;57836;-83
2024/04/05 11:51:01;;;;;;;4.90;2.10;;;;;;;20.50;63.39;100177.04;182097;1234;46091;-83
2024/04/05 11:55:03;;;;;;;4.40;1.70;;;;;;;20.45;62.24;100176.60;182914;1234;46413;-83
2024/04/05 11:59:05;;;;;;;8.20;2.00;;;;;;;20.08;65.55;100164.09;182284;1237;46023;-83
2024/04/05 12:03:06;;;;;;;5.30;2.00;;;;;;;20.05;66.85;100161.92;182708;1234;46168;-83
2024/04/05 12:07:09;;;;;;;4.80;2.20;;;;;;;20.07;64.26;100148.41;182477;1237;60018;-83
2024/04/05 12:11:11;;;;;;;5.20;2.30;;;;;;;20.20;65.91;100143.77;182722;1237;46073;-83
2024/04/05 12:15:15;;;;;;;5.30;2.70;;;;;;;20.41;63.19;100147.06;182546;1235;46058;-83
2024/04/05 12:19:17;;;;;;;4.00;1.50;;;;;;;20.64;65.60;100150.95;183011;1234;45990;-82
2024/04/05 12:23:18;;;;;;;3.90;1.90;;;;;;;20.95;65.13;100141.73;182898;1233;44159;-83
2024/04/05 12:27:21;;;;;;;7.00;2.20;;;;;;;21.10;61.50;100137.59;182478;1234;57969;-83
2024/04/05 12:31:23;;;;;;;7.00;1.60;;;;;;;21.27;61.91;100129.48;182586;1234;45870;-83
2024/04/05 12:35:25;;;;;;;7.60;1.70;;;;;;;21.58;62.42;100136.71;182328;1235;45952;-82
2024/04/05 12:39:29;;;;;;;5.00;1.70;;;;;;;21.58;59.08;100132.19;182763;1233;46111;-83
2024/04/05 12:43:30;;;;;;;3.40;2.10;;;;;;;21.43;61.08;100124.14;182488;1234;46356;-83
2024/04/05 12:47:32;;;;;;;5.30;2.10;;;;;;;21.61;61.60;100117.55;182526;1233;59658;-83
2024/04/05 12:51:34;;;;;;;4.50;1.90;;;;;;;21.85;60.53;100109.48;182470;1235;46031;-83
2024/04/05 12:55:36;;;;;;;2.20;2.00;;;;;;;21.99;58.51;100108.93;182859;1234;45960;-83
2024/04/05 12:59:38;;;;;;;2.70;1.50;;;;;;;22.03;61.52;100105.52;182438;1236;46217;-83
2024/04/05 13:03:40;;;;;;;3.90;1.90;;;;;;;22.03;59.93;100100.48;182564;1234;45907;-83
2024/04/05 13:07:43;;;;;;;5.30;2.10;;;;;;;22.18;59.91;100092.58;182679;1237;59345;-86
2024/04/05 13:11:45;;;;;;;38.30;7.90;;;;;;;22.31;61.87;100083.25;183160;1234;45913;-86
2024/04/05 13:15:47;;;;;;;6.60;2.20;;;;;;;22.35;60.52;100073.29;182809;1234;45158;-85
2024/04/05 13:19:49;;;;;;;6.60;2.20;;;;;;;22.39;60.83;100074.58;183041;1234;43945;-85
2024/04/05 13:23:51;;;;;;;5.30;1.60;;;;;;;22.27;61.02;100072.98;182388;1234;46019;-87
2024/04/05 13:27:53;;;;;;;9.20;2.00;;;;;;;22.30;64.75;100061.45;182796;1234;59050;-87
2024/04/05 13:31:55;;;;;;;4.70;2.30;;;;;;;22.37;62.13;100051.27;182643;1233;45974;-87
2024/04/05 13:36:05;;;;;;;5.40;1.50;;;;;;;22.38;62.62;100044.98;185585;1234;44032;-86
2024/04/05 13:40:09;;;;;;;3.70;1.60;;;;;;;22.45;62.66;100039.27;183172;1236;45999;-87
2024/04/05 13:44:11;;;;;;;3.00;1.60;;;;;;;22.48;61.57;100029.27;184334;1231;46452;-89
2024/04/05 13:48:13;;;;;;;5.20;1.70;;;;;;;22.51;61.23;100019.14;184198;1236;57923;-88
2024/04/05 13:52:16;;;;;;;2.90;1.40;;;;;;;22.54;61.87;100018.14;184243;1231;45807;-88
2024/04/05 13:56:18;;;;;;;9.70;3.20;;;;;;;22.54;62.07;100021.98;183734;1234;43946;-87
2024/04/05 14:00:23;;;;;;;3.70;1.40;;;;;;;22.48;62.66;100022.89;183729;1235;46158;-90
2024/04/05 14:04:25;;;;;;;5.30;2.10;;;;;;;22.47;60.91;100024.19;184018;1235;45902;-87
2024/04/05 14:08:30;;;;;;;5.50;2.00;;;;;;;22.54;60.70;100020.52;183459;1231;56798;-89
2024/04/05 14:12:33;;;;;;;2.20;1.30;;;;;;;22.57;61.92;100016.05;186027;1231;43354;-87
2024/04/05 14:16:35;;;;;;;6.50;2.00;;;;;;;22.53;62.33;100009.73;185835;1232;44059;-88
2024/04/05 14:20:39;;;;;;;4.20;1.30;;;;;;;22.50;62.09;100003.46;185476;1232;46005;-89
2024/04/05 14:24:42;;;;;;;2.80;2.20;;;;;;;22.29;61.14;100010.36;184150;1232;46030;-89
2024/04/05 14:28:46;;;;;;;4.30;2.20;;;;;;;22.09;62.21;100009.29;183722;1231;59519;-87
2024/04/05 14:32:49;;;;;;;6.00;1.30;;;;;;;22.00;63.22;100008.40;184027;1232;44769;-89
2024/04/05 14:36:51;;;;;;;4.20;1.60;;;;;;;21.97;62.01;100005.03;184539;1236;46126;-89
2024/04/05 14:40:55;;;;;;;2.60;1.20;;;;;;;22.00;65.27;99999.20;184200;1232;46080;-88
2024/04/05 14:44:58;;;;;;;4.20;1.20;;;;;;;22.12;66.11;99991.69;184613;1232;46099;-89
2024/04/05 14:49:00;;;;;;;3.30;1.60;;;;;;;22.29;65.51;99984.73;184105;1235;57159;-89
2024/04/05 14:53:03;;;;;;;2.90;1.60;;;;;;;22.41;62.63;99972.98;183819;1237;46216;-87
2024/04/05 14:57:07;;;;;;;3.40;1.40;;;;;;;22.40;62.48;99967.27;184716;1232;44047;-89
2024/04/05 15:01:12;;;;;;;5.90;1.80;;;;;;;22.37;62.46;99963.48;184030;1232;46025;-90
2024/04/05 15:05:15;;;;;;;4.20;1.70;;;;;;;22.50;63.69;99950.98;184021;1232;46075;-88
2024/04/05 15:09:17;;;;;;;3.30;1.20;;;;;;;22.72;62.49;99942.56;184104;1234;57967;-89
2024/04/05 15:13:19;;;;;;;1.70;1.40;;;;;;;22.88;62.94;99940.33;184510;1232;46011;-88
2024/04/05 15:17:22;;;;;;;11.30;3.90;;;;;;;22.96;60.38;99937.41;184549;1232;45978;-89
2024/04/05 15:30:01;;;;;;;2.00;1.60;;;;;;;22.48;63.10;99933.66;187223;1231;87810;-71
2024/04/05 15:34:56;;;;;;;6.50;2.40;;;;;;;22.36;64.58;99930.55;187164;1231;43072;-71
2024/04/05 15:38:58;;;;;;;4.20;1.60;;;;;;;22.25;65.29;99929.88;187361;1231;43514;-71
2024/04/05 15:43:51;;;;;;;2.40;1.20;;;;;;;22.09;66.31;99932.88;187042;1231;43540;-71
2024/04/05 15:47:52;;;;;;;3.10;1.10;;;;;;;21.93;68.15;99921.98;187350;1231;42956;-71
2024/04/05 15:52:32;;;;;;;2.80;1.20;;;;;;;21.79;67.48;99918.27;187338;1231;57149;-72
2024/04/05 15:56:34;;;;;;;3.20;1.40;;;;;;;21.55;67.99;99914.05;187207;1231;43651;-72
2024/04/05 16:00:42;;;;;;;4.60;0.80;;;;;;;21.35;68.09;99906.69;187267;1231;43001;-71
2024/04/05 16:04:45;;;;;;;3.50;1.40;;;;;;;21.13;68.58;99912.60;187321;1231;43806;-71
2024/04/05 16:09:16;;;;;;;8.40;2.40;;;;;;;20.88;69.87;99923.13;187329;1231;42964;-72
2024/04/05 16:13:17;;;;;;;6.10;3.70;;;;;;;20.62;70.86;99927.30;187314;1231;58444;-73
2024/04/05 16:17:19;;;;;;;7.00;3.00;;;;;;;20.42;72.48;99931.59;187287;1231;43781;-72
2024/04/05 16:21:22;;;;;;;4.40;2.70;;;;;;;20.21;73.77;99922.25;187339;1231;43323;-71
2024/04/05 16:25:47;;;;;;;4.70;2.50;;;;;;;20.07;75.14;99911.33;187391;1231;43405;-72
2024/04/05 16:29:52;;;;;;;4.50;2.20;;;;;;;19.89;76.13;99902.75;187235;1231;43015;-72
2024/04/05 16:33:53;;;;;;;10.00;5.50;;;;;;;19.68;76.90;99893.34;187292;1231;57861;-72
2024/04/05 16:37:55;;;;;;;8.10;3.60;;;;;;;19.53;78.04;99882.51;187357;1231;43031;-72
2024/04/05 16:41:57;;;;;;;6.80;4.70;;;;;;;19.33;78.77;99881.37;187308;1231;42983;-71
2024/04/05 16:46:29;;;;;;;4.90;3.30;;;;;;;19.21;78.87;99871.55;187398;1231;43067;-72
2024/04/05 16:50:31;;;;;;;5.00;2.80;;;;;;;19.08;79.28;99879.06;187269;1231;43376;-67
2024/04/05 16:54:32;;;;;;;4.50;2.80;;;;;;;18.95;79.82;99878.37;187322;1231;57063;-65
2024/04/05 16:59:05;;;;;;;4.40;2.50;;;;;;;18.88;80.13;99881.76;187129;1231;43066;-65
2024/04/05 17:03:07;;;;;;;4.70;2.10;;;;;;;18.77;80.28;99889.73;187286;1231;43123;-65
2024/04/05 17:07:09;;;;;;;4.30;3.20;;;;;;;18.61;79.76;99893.80;187234;1231;44407;-64
2024/04/05 17:12:06;;;;;;;11.70;3.10;;;;;;;18.41;80.46;99880.75;187266;1231;43596;-65
2024/04/05 18:10:30;;;;;;;9.20;3.20;;;;;;;17.81;85.84;99852.36;187230;1233;57874;-71
2024/04/05 18:14:58;;;;;;;5.10;2.20;;;;;;;17.77;86.08;99851.10;186583;1233;356575;-70
2024/04/05 18:19:01;;;;;;;7.70;4.60;;;;;;;17.70;86.82;99860.64;186943;1233;43414;-71
2024/04/05 18:23:37;;;;;;;6.60;2.70;;;;;;;17.67;86.89;99867.01;187069;1233;43416;-71
2024/04/05 18:27:42;;;;;;;6.30;3.30;;;;;;;17.64;87.02;99871.75;187099;1233;43389;-71
2024/04/05 18:31:51;;;;;;;6.10;2.60;;;;;;;17.58;87.19;99871.41;187193;1233;58324;-70
2024/04/05 18:35:53;;;;;;;10.70;3.90;;;;;;;17.51;87.68;99870.20;187119;1233;43436;-71
2024/04/05 18:39:55;;;;;;;9.40;3.60;;;;;;;17.45;88.05;99863.79;187171;1234;43660;-71
2024/04/05 18:44:33;;;;;;;7.60;2.50;;;;;;;17.45;88.12;99857.67;187261;1233;43310;-70
2024/04/05 18:48:36;;;;;;;12.90;6.10;;;;;;;17.43;88.42;99859.19;187190;1233;42966;-70
2024/04/05 18:52:39;;;;;;;11.30;5.10;;;;;;;17.46;88.54;99854.92;186962;1233;58014;-71
2024/04/05 18:56:45;;;;;;;4.70;2.50;;;;;;;17.48;88.50;99848.20;187155;1233;42981;-71
2024/04/05 19:00:48;;;;;;;6.80;5.20;;;;;;;17.51;88.46;99841.16;187080;1233;43136;-70
2024/04/05 19:04:50;;;;;;;8.80;2.90;;;;;;;17.51;88.18;99830.11;187181;1233;43380;-71
2024/04/05 19:08:53;;;;;;;2.90;2.00;;;;;;;17.53;88.43;99813.35;187212;1233;42956;-72
2024/04/05 19:12:55;;;;;;;4.10;2.30;;;;;;;17.55;88.14;99803.30;187145;1232;58754;-72
2024/04/05 19:17:26;;;;;;;6.80;3.00;;;;;;;17.54;87.96;99797.63;187170;1233;43615;-72
2024/04/05 19:21:35;;;;;;;5.40;2.30;;;;;;;17.52;87.80;99792.98;187238;1233;43577;-71
2024/04/05 19:25:43;;;;;;;2.60;1.50;;;;;;;17.54;87.24;99792.23;187082;1233;43759;-72
2024/04/05 19:29:49;;;;;;;2.80;1.80;;;;;;;17.54;87.02;99788.36;187297;1233;42941;-70
2024/04/05 19:34:00;;;;;;;2.30;1.50;;;;;;;17.56;86.68;99795.97;187195;1232;58132;-72
2024/04/05 19:38:03;;;;;;;2.00;1.20;;;;;;;17.61;86.11;99810.44;187245;1234;43855;-71
2024/04/05 19:47:01;;;;;;;5.60;3.30;;;;;;;17.67;85.57;99789.84;187232;1234;43801;-70
2024/04/05 19:51:12;;;;;;;4.30;2.20;;;;;;;17.69;85.60;99794.05;187166;1233;43597;-71